Time;durP1;ratioP1;P1;durP2;ratioP2;P2;SDS_P1;SDS_P2;PMS_P1;PMS_P2;Temp;Humidity;BMP_temperature;BMP_pressure;BME280_temperature;BME280_humidity;BME280_pressure;Samples;Min_cycle;Max_cycle;Signal;HPM_P1;HPM_P2
2023/05/10 00:01:06;;;;;;;7.88;4.38;;;8.80;99.90;;;;;;5030387;28;20040;-78
2023/05/10 00:03:32;;;;;;;7.88;4.30;;;8.80;99.90;;;;;;5040740;28;20381;-78
2023/05/10 00:05:58;;;;;;;8.10;4.20;;;8.80;99.90;;;;;;5042676;28;20029;-74
2023/05/10 00:08:24;;;;;;;6.55;4.18;;;8.80;99.90;;;;;;5044689;28;20049;-74
2023/05/10 00:10:50;;;;;;;7.60;4.15;;;8.90;99.90;;;;;;5051413;28;20033;-75
2023/05/10 00:13:16;;;;;;;7.97;4.20;;;8.90;99.90;;;;;;5043907;28;20029;-74
2023/05/10 00:15:41;;;;;;;7.32;3.75;;;8.90;99.90;;;;;;5045701;28;20045;-77
2023/05/10 00:18:07;;;;;;;8.10;4.10;;;8.90;99.90;;;;;;5045469;28;20032;-77
2023/05/10 00:20:33;;;;;;;7.35;4.55;;;8.90;99.90;;;;;;5051437;28;20021;-75
2023/05/10 00:22:59;;;;;;;8.10;5.03;;;8.80;99.90;;;;;;5051589;28;20080;-78
2023/05/10 00:25:25;;;;;;;6.80;4.18;;;8.80;99.90;;;;;;5025027;28;20048;-74
2023/05/10 00:27:50;;;;;;;8.23;4.53;;;8.80;99.90;;;;;;5051470;28;20493;-73
2023/05/10 00:30:19;;;;;;;6.60;4.00;;;8.80;99.90;;;;;;5033992;28;20041;-75
2023/05/10 00:32:45;;;;;;;8.88;4.63;;;8.70;99.90;;;;;;5050339;28;20479;-77
2023/05/10 00:35:11;;;;;;;6.28;4.22;;;8.60;99.90;;;;;;5058006;28;20044;-76
2023/05/10 00:37:37;;;;;;;9.43;4.85;;;8.60;99.90;;;;;;5049862;28;20037;-75
2023/05/10 00:40:03;;;;;;;7.60;4.47;;;8.70;99.90;;;;;;5050512;28;20408;-79
2023/05/10 00:42:29;;;;;;;9.45;4.35;;;8.60;99.90;;;;;;5049796;28;20029;-76
2023/05/10 00:44:55;;;;;;;10.60;4.78;;;8.60;99.90;;;;;;5050358;28;20075;-78
2023/05/10 00:47:21;;;;;;;8.32;4.45;;;8.60;99.90;;;;;;5051334;28;20036;-79
2023/05/10 00:49:47;;;;;;;6.43;4.55;;;8.70;99.90;;;;;;5050006;28;20098;-72
2023/05/10 00:52:13;;;;;;;8.05;4.57;;;8.60;99.90;;;;;;5050130;28;20032;-77
2023/05/10 00:54:40;;;;;;;9.13;4.57;;;8.60;99.90;;;;;;5050379;28;20431;-77
2023/05/10 00:57:06;;;;;;;8.57;4.63;;;8.60;99.90;;;;;;5033380;28;20546;-77
2023/05/10 00:59:32;;;;;;;8.82;5.13;;;8.60;99.90;;;;;;5050901;28;20021;-78
2023/05/10 01:01:58;;;;;;;8.73;4.65;;;8.60;99.90;;;;;;5043979;28;20168;-74
2023/05/10 01:04:28;;;;;;;9.45;5.10;;;8.60;99.90;;;;;;5051079;28;20056;-74
2023/05/10 01:06:54;;;;;;;7.78;4.93;;;8.60;99.90;;;;;;5051025;28;20423;-78
2023/05/10 01:09:21;;;;;;;8.02;4.55;;;8.50;99.90;;;;;;5049667;28;20076;-78
2023/05/10 01:11:48;;;;;;;7.00;4.50;;;8.40;99.90;;;;;;5031197;28;20045;-77
2023/05/10 01:14:17;;;;;;;7.30;4.60;;;8.40;99.90;;;;;;5027442;28;20026;-78
2023/05/10 01:16:45;;;;;;;8.35;4.57;;;8.40;99.90;;;;;;5065188;28;20433;-77
2023/05/10 01:19:18;;;;;;;10.50;5.03;;;8.40;99.90;;;;;;5062674;28;20037;-77
2023/05/10 01:21:49;;;;;;;;;;;8.40;99.90;;;;;;5034628;28;20408;-77
2023/05/10 01:24:37;;;;;;;9.68;4.78;;;8.40;99.90;;;;;;5041870;28;19909;-74
2023/05/10 01:27:19;;;;;;;9.13;4.75;;;8.40;99.90;;;;;;5054721;28;20499;-76
2023/05/10 01:29:51;;;;;;;9.32;5.28;;;8.40;99.90;;;;;;5028799;28;20044;-74
2023/05/10 01:32:31;;;;;;;9.23;5.40;;;8.40;99.90;;;;;;5036922;28;20057;-79
2023/05/10 01:35:32;;;;;;;9.32;4.82;;;8.40;99.90;;;;;;5039209;28;20072;-79
2023/05/10 01:38:21;;;;;;;9.18;4.95;;;8.40;99.90;;;;;;5030946;28;20049;-79
2023/05/10 01:41:07;;;;;;;9.10;5.10;;;8.40;99.90;;;;;;5012321;28;20129;-79
2023/05/10 01:43:47;;;;;;;8.52;5.20;;;8.40;99.90;;;;;;5012158;28;20041;-78
2023/05/10 01:46:32;;;;;;;7.75;4.90;;;8.40;99.90;;;;;;5032465;28;20108;-77
2023/05/10 01:49:02;;;;;;;9.02;5.43;;;8.30;99.90;;;;;;5032255;28;20057;-75
2023/05/10 01:51:37;;;;;;;8.85;5.25;;;8.40;99.90;;;;;;5020466;28;20026;-79
2023/05/10 01:54:08;;;;;;;9.38;5.35;;;8.30;99.90;;;;;;5019701;28;21655;-78
2023/05/10 01:56:37;;;;;;;9.95;5.35;;;8.30;99.90;;;;;;5015231;28;20124;-78
2023/05/10 01:59:10;;;;;;;9.85;5.20;;;8.20;99.90;;;;;;5015296;28;20053;-79
2023/05/10 02:01:38;;;;;;;7.53;5.03;;;8.20;99.90;;;;;;5028124;28;20033;-77
2023/05/10 02:04:06;;;;;;;9.38;5.45;;;8.20;99.90;;;;;;5031653;28;20037;-77
2023/05/10 02:06:34;;;;;;;12.43;5.57;;;8.20;99.90;;;;;;5015002;28;20404;-79
2023/05/10 02:09:01;;;;;;;11.50;5.22;;;8.20;99.90;;;;;;5031092;28;20053;-78
2023/05/10 02:11:28;;;;;;;10.70;5.78;;;8.20;99.90;;;;;;5015278;28;20484;-78
2023/05/10 02:13:56;;;;;;;8.02;4.95;;;8.10;99.90;;;;;;5015082;28;20021;-74
2023/05/10 02:16:30;;;;;;;10.38;5.57;;;8.10;99.90;;;;;;5051026;28;20028;-76
2023/05/10 02:18:58;;;;;;;9.55;5.35;;;8.20;99.90;;;;;;5049230;28;20028;-78
2023/05/10 02:21:26;;;;;;;9.40;5.50;;;8.20;99.90;;;;;;5045473;28;20411;-77
2023/05/10 02:23:53;;;;;;;9.13;5.32;;;8.20;99.90;;;;;;5046844;28;20038;-76
2023/05/10 02:26:23;;;;;;;9.30;5.60;;;8.10;99.90;;;;;;5033637;28;20544;-76
2023/05/10 02:28:50;;;;;;;9.73;5.68;;;8.10;99.90;;;;;;5046367;28;20059;-78
2023/05/10 02:31:17;;;;;;;10.23;5.95;;;8.10;99.90;;;;;;5039073;28;20017;-74
2023/05/10 02:33:45;;;;;;;11.60;5.97;;;8.10;99.90;;;;;;5022797;28;20038;-74
2023/05/10 02:36:13;;;;;;;10.63;6.38;;;8.00;99.90;;;;;;5044563;28;20021;-78
2023/05/10 02:38:40;;;;;;;8.88;5.65;;;8.00;99.90;;;;;;5032838;28;20052;-76
2023/05/10 02:41:07;;;;;;;10.95;6.22;;;8.00;99.90;;;;;;5031046;28;20032;-76
2023/05/10 02:43:35;;;;;;;11.98;6.10;;;8.00;99.90;;;;;;5047029;28;20055;-77
2023/05/10 02:46:01;;;;;;;11.15;5.90;;;7.90;99.90;;;;;;5050174;28;20136;-78
2023/05/10 02:48:28;;;;;;;11.52;6.50;;;7.90;99.90;;;;;;5042262;28;20071;-73
2023/05/10 02:51:00;;;;;;;11.63;6.10;;;7.90;99.90;;;;;;5044891;28;20049;-76
2023/05/10 02:53:32;;;;;;;11.37;5.50;;;7.90;99.90;;;;;;5047002;28;20026;-76
2023/05/10 02:56:04;;;;;;;10.88;6.03;;;7.90;99.90;;;;;;5043960;28;20262;-75
2023/05/10 02:58:30;;;;;;;10.23;6.47;;;7.80;99.90;;;;;;5040843;28;20079;-73
2023/05/10 03:00:55;;;;;;;12.75;6.90;;;7.80;99.90;;;;;;5046102;28;20103;-73
2023/05/10 03:03:21;;;;;;;12.38;6.63;;;7.80;99.90;;;;;;5048750;28;20036;-78
2023/05/10 03:05:49;;;;;;;10.90;6.38;;;7.80;99.90;;;;;;5049189;28;20183;-75
2023/05/10 03:08:15;;;;;;;10.25;5.70;;;7.80;99.90;;;;;;5041344;28;20128;-78
2023/05/10 03:11:07;;;;;;;13.27;6.22;;;7.80;99.90;;;;;;5048824;28;20098;-77
2023/05/10 03:13:44;;;;;;;13.30;7.70;;;7.90;99.90;;;;;;5047445;28;20047;-72
2023/05/10 03:16:27;;;;;;;23.50;18.75;;;8.00;99.90;;;;;;5045224;28;20024;-74
2023/05/10 03:19:21;;;;;;;13.32;7.93;;;8.00;99.90;;;;;;5044520;28;20495;-74
2023/05/10 03:21:51;;;;;;;17.55;9.93;;;8.10;99.90;;;;;;5046375;28;20052;-76
2023/05/10 03:24:20;;;;;;;14.05;8.60;;;8.10;99.90;;;;;;5037619;28;20023;-72
2023/05/10 03:26:50;;;;;;;13.52;8.23;;;8.00;99.90;;;;;;5044498;28;20062;-74
2023/05/10 03:29:18;;;;;;;19.30;13.18;;;7.90;99.90;;;;;;5045589;28;20388;-76
2023/05/10 03:31:44;;;;;;;19.60;12.48;;;8.10;99.90;;;;;;5041136;28;20025;-78
2023/05/10 03:34:10;;;;;;;19.40;12.15;;;8.50;99.90;;;;;;5044209;28;20092;-79
2023/05/10 03:36:36;;;;;;;13.43;8.68;;;8.90;99.90;;;;;;5035930;28;20028;-74
2023/05/10 03:39:02;;;;;;;10.50;5.22;;;9.30;99.90;;;;;;5043887;28;20401;-77
2023/05/10 03:41:28;;;;;;;11.13;5.18;;;9.70;99.90;;;;;;5048931;28;20052;-76
2023/05/10 03:43:54;;;;;;;8.40;4.85;;;9.90;99.90;;;;;;5039647;28;20137;-80
2023/05/10 03:46:20;;;;;;;7.97;4.30;;;10.20;99.90;;;;;;5031949;28;20096;-78
2023/05/10 03:48:46;;;;;;;9.23;4.97;;;10.50;99.90;;;;;;5030936;28;20038;-78
2023/05/10 03:51:12;;;;;;;6.75;4.53;;;11.00;99.90;;;;;;5014289;28;20033;-79
2023/05/10 03:53:39;;;;;;;6.97;3.53;;;11.10;99.90;;;;;;5047905;28;20021;-75
2023/05/10 03:56:05;;;;;;;6.05;3.60;;;11.90;99.90;;;;;;5051996;28;20456;-74
2023/05/10 03:58:30;;;;;;;6.10;3.97;;;11.70;99.90;;;;;;5034456;28;20524;-80
2023/05/10 04:00:57;;;;;;;5.13;3.55;;;12.40;99.90;;;;;;5050330;28;20059;-74
2023/05/10 04:03:25;;;;;;;6.93;4.05;;;12.10;99.90;;;;;;5038608;28;20439;-78
2023/05/10 04:06:00;;;;;;;6.47;3.60;;;12.80;99.90;;;;;;5040307;28;20055;-77
2023/05/10 04:08:26;;;;;;;9.13;4.40;;;13.40;99.90;;;;;;5030051;28;20489;-77
2023/05/10 04:10:52;;;;;;;9.43;4.63;;;12.90;99.90;;;;;;5034313;28;20038;-79
2023/05/10 04:13:18;;;;;;;8.65;4.95;;;13.10;99.90;;;;;;5050996;28;20400;-80
2023/05/10 04:15:44;;;;;;;8.15;4.20;;;12.70;99.90;;;;;;5047237;28;20480;-79
2023/05/10 04:18:11;;;;;;;13.77;7.88;;;13.40;99.90;;;;;;5051292;28;20070;-74
2023/05/10 04:20:37;;;;;;;18.85;9.70;;;13.50;99.90;;;;;;5038343;28;20021;-79
2023/05/10 04:23:03;;;;;;;9.50;5.45;;;13.80;99.90;;;;;;5041189;28;20101;-79
2023/05/10 04:25:28;;;;;;;6.97;4.18;;;13.80;99.90;;;;;;5047368;28;20027;-73
2023/05/10 04:27:54;;;;;;;6.70;3.58;;;13.90;99.90;;;;;;5041821;28;20357;-77
2023/05/10 04:30:20;;;;;;;6.65;4.05;;;14.10;99.90;;;;;;5051346;28;20396;-81
2023/05/10 04:32:46;;;;;;;4.05;3.30;;;14.30;99.90;;;;;;5052056;28;20047;-80
2023/05/10 04:35:11;;;;;;;5.75;3.35;;;14.30;99.90;;;;;;5039004;28;20025;-77
2023/05/10 04:37:37;;;;;;;6.05;3.60;;;14.40;99.90;;;;;;5038491;28;20469;-80
2023/05/10 04:40:04;;;;;;;5.35;3.42;;;14.80;99.90;;;;;;5048042;28;20029;-78
2023/05/10 04:42:29;;;;;;;4.72;3.78;;;15.10;99.90;;;;;;5051683;28;20121;-80
2023/05/10 04:44:55;;;;;;;14.25;7.53;;;14.90;99.90;;;;;;5045468;28;20524;-75
2023/05/10 04:47:21;;;;;;;6.82;3.70;;;14.60;99.90;;;;;;5049241;28;20071;-76
2023/05/10 04:49:46;;;;;;;6.50;3.35;;;15.40;99.90;;;;;;5051390;28;20037;-79
2023/05/10 04:52:13;;;;;;;4.07;3.05;;;15.70;99.90;;;;;;5049442;28;20113;-80
2023/05/10 04:54:39;;;;;;;5.68;3.25;;;15.70;99.90;;;;;;5050681;28;20082;-78
2023/05/10 04:57:05;;;;;;;5.15;3.20;;;15.80;99.90;;;;;;5039221;28;20105;-77
2023/05/10 04:59:31;;;;;;;6.55;3.28;;;16.10;99.90;;;;;;5046129;28;20104;-79
2023/05/10 05:01:56;;;;;;;5.50;3.17;;;14.60;99.90;;;;;;5052332;28;20029;-80
2023/05/10 05:04:23;;;;;;;4.65;3.08;;;14.20;99.90;;;;;;5040576;28;20043;-79
2023/05/10 05:06:49;;;;;;;4.90;3.33;;;13.40;99.90;;;;;;5039505;28;20366;-79
2023/05/10 05:09:16;;;;;;;5.82;3.40;;;13.00;99.90;;;;;;5050166;28;20056;-79
2023/05/10 05:11:41;;;;;;;8.73;3.72;;;12.70;99.90;;;;;;5047710;28;20021;-75
2023/05/10 05:14:07;;;;;;;9.38;5.15;;;13.00;99.90;;;;;;5023704;28;20488;-76
2023/05/10 05:16:33;;;;;;;5.43;3.70;;;12.90;99.90;;;;;;5033504;28;20052;-79
2023/05/10 05:19:00;;;;;;;9.80;4.53;;;13.00;99.90;;;;;;5033574;28;20030;-74
2023/05/10 05:21:26;;;;;;;4.55;3.45;;;12.90;99.90;;;;;;5034824;28;20108;-75
2023/05/10 05:23:52;;;;;;;5.93;3.45;;;13.30;99.90;;;;;;5033494;28;20030;-79
2023/05/10 05:26:18;;;;;;;5.40;3.03;;;13.70;99.90;;;;;;5038545;28;20025;-79
2023/05/10 05:28:44;;;;;;;6.97;2.97;;;13.80;99.90;;;;;;5051740;28;20048;-78
2023/05/10 05:31:10;;;;;;;5.38;3.10;;;14.00;99.90;;;;;;5048883;28;20424;-76
2023/05/10 05:33:36;;;;;;;5.85;2.92;;;14.20;99.90;;;;;;5042225;28;20029;-80
2023/05/10 05:36:04;;;;;;;6.75;3.10;;;14.30;99.90;;;;;;5048437;28;20021;-75
2023/05/10 05:38:30;;;;;;;5.28;3.00;;;14.50;99.90;;;;;;5050500;28;20029;-74
2023/05/10 05:40:56;;;;;;;3.65;2.67;;;14.60;99.90;;;;;;5035802;28;20021;-73
2023/05/10 05:43:22;;;;;;;4.63;2.95;;;14.50;99.90;;;;;;5042697;28;20488;-77
2023/05/10 05:45:47;;;;;;;6.18;3.15;;;14.60;99.90;;;;;;5047444;28;20032;-76
2023/05/10 05:48:13;;;;;;;9.32;3.13;;;14.60;99.90;;;;;;5041566;28;20020;-76
2023/05/10 05:50:39;;;;;;;4.65;2.92;;;14.70;99.90;;;;;;5048715;28;20040;-76
2023/05/10 05:53:05;;;;;;;5.03;2.97;;;14.70;99.90;;;;;;5039454;28;20025;-76
2023/05/10 05:55:31;;;;;;;15.10;3.53;;;14.90;99.90;;;;;;5048323;28;20389;-79
2023/05/10 05:57:58;;;;;;;6.40;3.00;;;15.10;99.90;;;;;;5044469;28;20029;-75
2023/05/10 06:00:23;;;;;;;6.60;3.67;;;15.00;99.90;;;;;;5044073;28;20025;-79
2023/05/10 06:02:49;;;;;;;5.72;3.05;;;15.00;99.90;;;;;;5053681;28;20029;-78
2023/05/10 06:05:15;;;;;;;4.50;2.75;;;15.10;99.90;;;;;;5044565;28;20465;-75
2023/05/10 06:07:44;;;;;;;4.40;2.50;;;15.40;99.90;;;;;;5038251;28;20415;-77
2023/05/10 06:10:10;;;;;;;5.20;2.95;;;15.50;99.90;;;;;;5045308;28;20037;-76
2023/05/10 06:12:36;;;;;;;4.38;3.05;;;15.60;99.90;;;;;;5049291;28;20117;-77
2023/05/10 06:15:02;;;;;;;7.45;3.17;;;15.80;99.90;;;;;;5033125;28;20040;-76
2023/05/10 06:17:28;;;;;;;5.28;2.90;;;16.00;99.90;;;;;;5043856;28;20022;-76
2023/05/10 06:19:54;;;;;;;5.43;3.10;;;16.10;99.90;;;;;;5048270;28;20107;-77
2023/05/10 06:22:22;;;;;;;4.60;3.08;;;16.10;99.90;;;;;;5051029;28;20453;-77
2023/05/10 06:24:48;;;;;;;6.35;3.28;;;16.30;99.90;;;;;;5035522;28;20067;-76
2023/05/10 06:27:15;;;;;;;4.85;2.75;;;16.30;99.90;;;;;;5053390;28;20036;-79
2023/05/10 06:29:40;;;;;;;3.38;2.50;;;16.30;99.90;;;;;;5053187;28;20029;-79
2023/05/10 06:32:06;;;;;;;10.18;3.00;;;16.50;99.90;;;;;;5052663;28;20075;-76
2023/05/10 06:34:32;;;;;;;4.53;2.47;;;16.70;99.90;;;;;;5051495;28;20033;-76
2023/05/10 06:36:58;;;;;;;5.65;2.75;;;16.80;99.90;;;;;;5041977;28;20035;-77
2023/05/10 06:39:24;;;;;;;5.43;2.88;;;16.30;99.90;;;;;;5053395;28;20029;-76
2023/05/10 06:41:50;;;;;;;5.05;2.80;;;16.40;99.90;;;;;;5053309;28;20461;-76
2023/05/10 06:44:15;;;;;;;3.65;2.75;;;16.50;99.90;;;;;;5052844;28;20060;-76
2023/05/10 06:46:41;;;;;;;6.50;3.35;;;16.80;99.90;;;;;;5053316;28;20037;-76
2023/05/10 06:49:07;;;;;;;5.18;2.70;;;17.20;99.90;;;;;;5052836;28;20044;-77
2023/05/10 06:51:33;;;;;;;7.13;3.15;;;17.20;99.90;;;;;;5053011;28;20025;-76
2023/05/10 06:53:59;;;;;;;8.10;3.00;;;17.10;99.90;;;;;;5052909;28;20100;-78
2023/05/10 06:56:25;;;;;;;7.22;3.15;;;17.10;99.90;;;;;;5053228;28;20432;-78
2023/05/10 06:58:51;;;;;;;5.63;2.92;;;17.20;99.90;;;;;;5051216;28;20075;-75
2023/05/10 07:01:17;;;;;;;4.28;2.20;;;17.40;99.90;;;;;;5052951;28;20052;-77
2023/05/10 07:03:43;;;;;;;3.67;2.40;;;17.60;99.90;;;;;;5052647;28;20057;-76
2023/05/10 07:06:09;;;;;;;3.92;2.30;;;18.00;99.90;;;;;;5046140;28;20025;-80
2023/05/10 07:08:35;;;;;;;6.03;2.65;;;18.20;99.90;;;;;;5037011;28;20056;-79
2023/05/10 07:11:04;;;;;;;4.75;2.70;;;17.70;99.90;;;;;;5045986;28;20102;-77
2023/05/10 07:13:34;;;;;;;8.90;3.38;;;17.80;99.90;;;;;;5037082;28;20029;-77
2023/05/10 07:16:01;;;;;;;5.68;3.25;;;18.20;99.90;;;;;;5042042;28;20040;-76
2023/05/10 07:18:27;;;;;;;5.65;3.38;;;18.20;99.90;;;;;;5037578;28;20021;-79
2023/05/10 07:20:53;;;;;;;5.40;2.55;;;18.20;99.90;;;;;;5042806;28;20056;-75
2023/05/10 07:23:20;;;;;;;11.23;4.10;;;18.20;99.90;;;;;;5036646;28;20057;-76
2023/05/10 07:25:51;;;;;;;4.75;2.83;;;17.80;99.90;;;;;;5046584;28;20025;-76
2023/05/10 07:28:18;;;;;;;3.95;2.90;;;17.80;99.90;;;;;;5038045;28;20029;-78
2023/05/10 07:30:44;;;;;;;4.47;2.90;;;18.00;99.90;;;;;;5044872;28;20036;-77
2023/05/10 07:33:12;;;;;;;4.57;2.67;;;17.80;99.90;;;;;;5038058;28;20021;-76
2023/05/10 07:35:38;;;;;;;7.85;3.15;;;17.70;99.90;;;;;;5042117;28;20108;-77
2023/05/10 07:38:04;;;;;;;4.90;2.47;;;17.70;99.90;;;;;;5036952;28;20537;-76
2023/05/10 07:40:30;;;;;;;9.10;3.40;;;18.10;99.90;;;;;;5050150;28;20082;-78
2023/05/10 07:42:56;;;;;;;4.35;3.03;;;18.00;99.90;;;;;;5049482;28;20028;-76
2023/05/10 07:45:22;;;;;;;12.30;3.03;;;17.80;99.90;;;;;;5052120;28;20067;-78
2023/05/10 07:47:48;;;;;;;5.93;2.95;;;17.90;99.90;;;;;;5045575;28;20065;-77
2023/05/10 07:50:14;;;;;;;6.75;2.70;;;18.00;99.90;;;;;;5038645;28;20064;-76
2023/05/10 07:52:40;;;;;;;3.50;2.63;;;18.40;99.90;;;;;;5046593;28;20119;-78
2023/05/10 07:55:07;;;;;;;3.42;2.40;;;18.10;99.90;;;;;;5040182;28;20040;-77
2023/05/10 07:57:34;;;;;;;4.68;2.85;;;18.00;99.90;;;;;;5049411;28;20017;-75
2023/05/10 08:00:00;;;;;;;5.47;2.97;;;18.10;99.90;;;;;;5050537;28;20523;-75
2023/05/10 08:02:26;;;;;;;8.15;2.70;;;18.30;99.90;;;;;;5033324;28;20022;-76
2023/05/10 08:04:52;;;;;;;4.88;2.47;;;18.40;99.90;;;;;;5042695;28;20032;-78
2023/05/10 08:07:18;;;;;;;8.68;2.63;;;18.80;99.90;;;;;;5051598;28;20025;-77
2023/05/10 08:09:44;;;;;;;4.47;2.72;;;18.40;99.90;;;;;;5042796;28;20060;-76
2023/05/10 08:12:10;;;;;;;4.68;2.70;;;18.40;99.90;;;;;;5052002;28;20034;-78
2023/05/10 08:14:38;;;;;;;6.78;2.88;;;18.10;99.90;;;;;;5051731;28;20112;-76
2023/05/10 08:17:05;;;;;;;6.65;2.47;;;18.00;99.90;;;;;;5052031;28;20022;-76
2023/05/10 08:19:30;;;;;;;7.60;2.92;;;17.90;99.90;;;;;;5052275;28;20047;-75
2023/05/10 08:21:57;;;;;;;4.25;2.78;;;18.20;99.90;;;;;;5039271;28;20021;-76
2023/05/10 08:24:23;;;;;;;4.80;2.58;;;18.50;99.90;;;;;;5051551;28;20534;-75
2023/05/10 08:26:48;;;;;;;9.63;2.38;;;18.60;99.90;;;;;;5045831;28;20033;-77
2023/05/10 08:29:15;;;;;;;4.22;2.42;;;18.60;99.90;;;;;;5044892;28;20025;-77
2023/05/10 08:31:41;;;;;;;4.05;2.33;;;18.70;99.90;;;;;;5044622;28;20029;-76
2023/05/10 08:34:06;;;;;;;5.50;2.40;;;18.70;99.90;;;;;;5035166;28;20152;-77
2023/05/10 08:36:32;;;;;;;9.30;2.50;;;18.80;99.90;;;;;;5035932;28;20112;-75
2023/05/10 08:38:58;;;;;;;10.25;3.17;;;19.10;99.90;;;;;;5042803;28;20367;-76
2023/05/10 08:41:25;;;;;;;6.13;2.83;;;19.10;99.90;;;;;;5036806;28;20051;-76
2023/05/10 08:43:52;;;;;;;5.78;2.20;;;19.30;99.90;;;;;;5039016;28;20427;-74
2023/05/10 08:46:20;;;;;;;9.95;3.33;;;19.40;99.90;;;;;;5038608;28;20036;-75
2023/05/10 08:48:49;;;;;;;5.43;2.85;;;19.30;99.90;;;;;;5033943;28;20507;-78
2023/05/10 08:51:18;;;;;;;5.35;2.90;;;19.80;99.90;;;;;;5034308;28;20021;-78
2023/05/10 08:53:45;;;;;;;3.92;2.55;;;19.70;99.90;;;;;;5037530;28;20544;-78
2023/05/10 08:56:11;;;;;;;4.82;2.35;;;19.90;99.90;;;;;;5043730;28;20496;-79
2023/05/10 08:58:38;;;;;;;4.97;2.67;;;19.60;99.90;;;;;;5050121;28;20033;-76
2023/05/10 09:01:05;;;;;;;5.65;2.53;;;19.50;99.90;;;;;;5038259;28;20028;-74
2023/05/10 09:03:32;;;;;;;3.45;2.65;;;19.10;99.90;;;;;;5052760;28;20087;-77
2023/05/10 09:05:58;;;;;;;7.40;2.80;;;19.00;99.90;;;;;;5036844;28;20097;-75
2023/05/10 09:08:27;;;;;;;7.18;2.67;;;19.10;99.90;;;;;;5039494;28;20053;-77
2023/05/10 09:10:54;;;;;;;6.38;2.38;;;19.30;99.90;;;;;;5039452;28;20511;-76
2023/05/10 09:13:22;;;;;;;5.55;2.15;;;19.30;99.90;;;;;;5036257;28;20391;-79
2023/05/10 09:15:48;;;;;;;5.13;2.40;;;19.20;99.90;;;;;;5039429;28;20036;-77
2023/05/10 09:18:14;;;;;;;9.50;3.10;;;19.70;99.90;;;;;;5040199;28;20033;-77
2023/05/10 09:20:40;;;;;;;4.60;2.65;;;19.70;99.90;;;;;;5034412;28;20477;-76
2023/05/10 09:23:07;;;;;;;5.93;2.20;;;19.70;99.90;;;;;;5041222;28;20017;-79
2023/05/10 09:25:36;;;;;;;4.80;2.05;;;20.00;99.90;;;;;;5054976;28;20033;-81
2023/05/10 09:28:07;;;;;;;6.45;2.88;;;20.20;99.90;;;;;;5053389;28;20043;-76
2023/05/10 09:30:33;;;;;;;5.15;2.72;;;19.70;99.90;;;;;;5053530;28;20199;-77
2023/05/10 09:32:59;;;;;;;5.20;2.28;;;19.50;99.90;;;;;;5047332;28;20116;-79
2023/05/10 09:35:28;;;;;;;4.05;2.38;;;19.40;99.90;;;;;;5048757;28;20044;-76
2023/05/10 09:37:57;;;;;;;7.63;2.40;;;19.90;99.90;;;;;;5052376;28;20479;-76
2023/05/10 09:40:25;;;;;;;4.75;2.38;;;19.70;99.90;;;;;;5054446;28;20514;-78
2023/05/10 09:43:23;;;;;;;4.35;2.58;;;19.80;99.90;;;;;;5054411;28;20013;-79
2023/05/10 09:45:53;;;;;;;7.15;2.15;;;19.70;99.90;;;;;;5031809;28;20034;-81
2023/05/10 09:48:23;;;;;;;4.00;2.33;;;19.70;99.90;;;;;;5019294;28;20046;-78
2023/05/10 09:50:57;;;;;;;6.03;2.55;;;19.60;99.90;;;;;;5019768;28;20041;-78
2023/05/10 09:53:22;;;;;;;12.63;3.58;;;19.90;99.90;;;;;;5032171;28;20501;-78
2023/05/10 09:55:50;;;;;;;17.38;2.65;;;20.10;99.90;;;;;;5031996;28;20044;-76
2023/05/10 09:58:16;;;;;;;5.97;2.60;;;20.20;99.90;;;;;;5031164;28;20026;-75
2023/05/10 10:00:43;;;;;;;3.50;2.53;;;19.80;99.90;;;;;;5032152;28;20128;-77
2023/05/10 10:03:14;;;;;;;4.80;2.15;;;19.90;99.90;;;;;;5031751;28;20440;-80
2023/05/10 10:05:42;;;;;;;4.72;2.00;;;19.70;99.90;;;;;;5032359;28;20022;-76
2023/05/10 10:08:08;;;;;;;4.75;2.50;;;19.70;99.90;;;;;;5031825;28;20037;-77
2023/05/10 10:10:34;;;;;;;4.50;2.58;;;19.90;99.90;;;;;;5031377;28;20037;-78
2023/05/10 10:13:00;;;;;;;1.83;1.70;;;19.90;99.90;;;;;;5031873;28;20021;-77
2023/05/10 10:15:26;;;;;;;6.80;2.42;;;19.90;99.90;;;;;;5031459;28;20076;-78
2023/05/10 10:17:53;;;;;;;7.30;2.10;;;20.00;99.90;;;;;;5031954;28;20060;-79
2023/05/10 10:20:21;;;;;;;17.17;2.70;;;20.10;99.90;;;;;;5032876;28;20042;-80
2023/05/10 10:22:47;;;;;;;9.95;1.98;;;19.60;99.90;;;;;;5054072;28;20570;-76
2023/05/10 10:25:15;;;;;;;9.55;2.70;;;19.20;99.90;;;;;;5040345;28;20032;-74
2023/05/10 10:27:53;;;;;;;9.25;2.22;;;19.30;99.90;;;;;;5053754;28;20074;-78
2023/05/10 10:30:43;;;;;;;6.78;2.03;;;19.80;99.90;;;;;;5053578;28;20472;-74
2023/05/10 10:33:09;;;;;;;5.38;2.15;;;20.00;99.90;;;;;;5053376;28;20029;-77
2023/05/10 10:35:35;;;;;;;7.28;2.30;;;20.20;99.90;;;;;;5053909;28;20443;-77
2023/05/10 10:38:01;;;;;;;6.05;1.73;;;20.50;99.90;;;;;;5053191;28;20040;-75
2023/05/10 10:40:29;;;;;;;7.88;2.38;;;20.50;99.90;;;;;;5053094;28;20021;-78
2023/05/10 10:42:56;;;;;;;6.22;2.20;;;20.10;99.90;;;;;;5052837;28;20106;-76
2023/05/10 10:45:23;;;;;;;9.85;2.58;;;20.60;99.90;;;;;;5053331;28;20021;-77
2023/05/10 10:48:13;;;;;;;5.57;2.47;;;20.50;99.90;;;;;;5052994;28;20036;-78
2023/05/10 10:50:46;;;;;;;3.15;2.00;;;20.20;99.90;;;;;;5052635;28;20029;-78
2023/05/10 10:53:12;;;;;;;6.85;2.65;;;20.10;99.90;;;;;;5052769;28;20029;-81
2023/05/10 10:55:48;;;;;;;5.25;1.88;;;20.10;99.90;;;;;;5053303;28;20427;-77
2023/05/10 10:58:33;;;;;;;9.57;2.10;;;19.80;99.90;;;;;;5053246;28;20381;-77
2023/05/10 11:01:18;;;;;;;7.80;2.20;;;19.80;99.90;;;;;;5052344;28;20032;-79
2023/05/10 11:04:03;;;;;;;3.00;1.88;;;20.00;99.90;;;;;;5052971;28;20020;-79
2023/05/10 11:06:33;;;;;;;16.58;2.10;;;20.10;99.90;;;;;;5052863;28;20039;-77
2023/05/10 11:09:11;;;;;;;5.57;2.10;;;20.10;99.90;;;;;;5052207;28;20053;-81
2023/05/10 11:11:50;;;;;;;2.33;1.80;;;20.40;99.90;;;;;;5052634;28;20082;-82
2023/05/10 11:14:21;;;;;;;1.85;1.70;;;20.40;99.90;;;;;;5051935;28;20128;-73
2023/05/10 11:16:47;;;;;;;5.45;2.03;;;20.20;99.90;;;;;;5052605;28;20090;-78
2023/05/10 11:19:15;;;;;;;6.25;2.03;;;20.40;99.90;;;;;;5052516;28;20024;-77
2023/05/10 11:22:04;;;;;;;4.95;2.13;;;20.30;99.90;;;;;;5050747;28;20175;-75
2023/05/10 11:24:30;;;;;;;4.57;2.42;;;20.30;99.90;;;;;;5029774;28;20041;-79
2023/05/10 11:26:56;;;;;;;10.07;2.15;;;20.10;99.90;;;;;;5030515;28;20036;-76
2023/05/10 11:29:22;;;;;;;3.15;2.10;;;19.90;99.90;;;;;;5029732;28;20079;-80
2023/05/10 11:31:49;;;;;;;5.97;2.22;;;20.00;99.90;;;;;;5029825;28;20481;-79
2023/05/10 11:34:35;;;;;;;4.78;1.70;;;20.20;99.90;;;;;;5030148;28;20064;-77
2023/05/10 11:37:01;;;;;;;4.80;1.75;;;20.00;99.90;;;;;;5030638;28;20514;-79
2023/05/10 11:39:28;;;;;;;12.07;2.83;;;19.80;99.90;;;;;;5013264;28;20029;-78
2023/05/10 11:41:54;;;;;;;4.97;2.40;;;20.10;99.90;;;;;;5030005;28;20491;-76
2023/05/10 11:44:20;;;;;;;5.95;2.45;;;20.20;99.90;;;;;;5029847;28;20029;-76
2023/05/10 11:46:46;;;;;;;3.03;1.88;;;20.40;99.90;;;;;;5029741;28;20091;-76
2023/05/10 11:49:13;;;;;;;6.15;2.80;;;20.20;99.90;;;;;;5013677;28;20049;-80
2023/05/10 11:51:39;;;;;;;14.80;2.08;;;20.40;99.90;;;;;;5030098;28;20029;-75
2023/05/10 11:54:10;;;;;;;5.82;2.60;;;20.40;99.90;;;;;;5030221;28;20042;-76
2023/05/10 11:56:40;;;;;;;3.95;2.10;;;20.50;99.90;;;;;;5029931;28;20053;-77
2023/05/10 11:59:05;;;;;;;4.65;1.80;;;20.40;99.90;;;;;;5013211;28;20511;-74
2023/05/10 12:01:32;;;;;;;5.70;2.15;;;20.30;99.90;;;;;;5041425;28;20032;-78
2023/05/10 12:03:59;;;;;;;4.90;2.38;;;20.20;99.90;;;;;;5051827;28;20105;-76
2023/05/10 12:06:36;;;;;;;5.35;2.22;;;20.10;99.90;;;;;;5052080;28;20496;-76
2023/05/10 12:09:09;;;;;;;2.92;1.77;;;20.10;99.90;;;;;;5051082;28;20283;-79
2023/05/10 12:11:40;;;;;;;10.75;2.13;;;20.10;99.90;;;;;;5051823;28;20527;-77
2023/05/10 12:14:08;;;;;;;5.18;1.83;;;20.20;99.90;;;;;;5051534;28;20021;-77
2023/05/10 12:16:33;;;;;;;6.97;2.55;;;19.90;99.90;;;;;;5050698;28;20107;-77
2023/05/10 12:19:00;;;;;;;6.72;2.20;;;20.00;99.90;;;;;;5051865;28;20488;-76
2023/05/10 12:21:28;;;;;;;8.23;2.55;;;20.00;99.90;;;;;;5051082;28;20021;-77
2023/05/10 12:24:02;;;;;;;4.90;2.35;;;20.20;99.90;;;;;;5050928;28;20087;-81
2023/05/10 12:26:28;;;;;;;3.65;1.75;;;20.20;99.90;;;;;;5038163;28;20083;-77
2023/05/10 12:28:55;;;;;;;5.45;2.25;;;20.20;99.90;;;;;;5051705;28;20033;-80
2023/05/10 12:31:21;;;;;;;2.60;2.08;;;20.20;99.90;;;;;;5051514;28;20033;-75
2023/05/10 12:33:49;;;;;;;5.25;1.90;;;20.00;99.90;;;;;;5052246;28;20025;-80
2023/05/10 12:36:16;;;;;;;7.65;2.90;;;20.20;99.90;;;;;;5050413;28;20446;-76
2023/05/10 12:38:43;;;;;;;3.53;2.00;;;20.50;99.90;;;;;;5051697;28;20027;-77
2023/05/10 12:41:11;;;;;;;3.85;1.92;;;20.60;99.90;;;;;;5050388;28;20033;-80
2023/05/10 12:43:38;;;;;;;5.45;1.80;;;20.40;99.90;;;;;;5051690;28;20503;-79
2023/05/10 12:46:08;;;;;;;5.93;2.13;;;20.30;99.90;;;;;;5051621;28;20404;-81
2023/05/10 12:48:35;;;;;;;3.92;2.08;;;20.50;99.90;;;;;;5051375;28;20029;-81
2023/05/10 12:51:02;;;;;;;5.22;2.15;;;20.50;99.90;;;;;;5051535;28;20028;-74
2023/05/10 12:53:28;;;;;;;2.03;1.75;;;20.30;99.90;;;;;;5050004;28;20384;-78